Time;durP1;ratioP1;P1;durP2;ratioP2;P2;SDS_P1;SDS_P2;PMS_P1;PMS_P2;Temp;Humidity;BMP_temperature;BMP_pressure;BME280_temperature;BME280_humidity;BME280_pressure;Samples;Min_cycle;Max_cycle;Signal;HPM_P1;HPM_P2
2024/02/06 00:00:29;;;;;;;14.93;12.57;;;5.30;99.90;;;;;;4993462;28;20215;-68
2024/02/06 00:02:54;;;;;;;14.43;12.93;;;5.30;99.90;;;;;;4993486;28;20173;-68
2024/02/06 00:05:20;;;;;;;15.00;12.30;;;5.30;99.90;;;;;;4993390;28;20190;-68
2024/02/06 00:07:45;;;;;;;15.20;13.73;;;5.30;99.90;;;;;;4993251;28;20197;-68
2024/02/06 00:10:12;;;;;;;13.43;12.03;;;5.30;99.90;;;;;;4993613;28;20239;-69
2024/02/06 00:12:37;;;;;;;18.07;13.57;;;5.30;99.90;;;;;;4993777;28;20552;-69
2024/02/06 00:15:03;;;;;;;12.43;11.00;;;5.30;99.90;;;;;;4993655;28;20408;-69
2024/02/06 00:17:29;;;;;;;14.47;12.97;;;5.30;99.90;;;;;;4993027;28;20734;-68
2024/02/06 00:19:55;;;;;;;14.30;12.20;;;5.30;99.90;;;;;;4979401;28;20568;-68
2024/02/06 00:22:20;;;;;;;17.30;13.93;;;5.30;99.90;;;;;;4974039;28;20664;-69
2024/02/06 00:24:49;;;;;;;16.33;14.70;;;5.10;99.90;;;;;;4987053;28;20259;-69
2024/02/06 00:27:14;;;;;;;17.67;15.20;;;5.10;99.90;;;;;;4993449;28;20256;-68
2024/02/06 00:29:40;;;;;;;13.73;12.23;;;5.10;99.90;;;;;;4981568;28;20518;-69
2024/02/06 00:32:06;;;;;;;14.00;12.07;;;5.20;99.90;;;;;;4974987;28;20169;-69
2024/02/06 00:34:32;;;;;;;12.70;11.40;;;5.20;99.90;;;;;;4977659;28;20178;-69
2024/02/06 00:36:57;;;;;;;16.00;14.30;;;5.10;99.90;;;;;;4977362;28;20892;-67
2024/02/06 00:39:23;;;;;;;15.57;13.57;;;4.90;99.90;;;;;;4986736;28;20224;-69
2024/02/06 00:41:48;;;;;;;14.70;13.30;;;5.00;99.90;;;;;;4996965;28;20635;-69
2024/02/06 00:44:14;;;;;;;16.40;13.60;;;5.10;99.90;;;;;;4996736;28;20165;-69
2024/02/06 00:46:40;;;;;;;16.03;14.30;;;5.00;99.90;;;;;;4996733;28;20165;-68
2024/02/06 00:49:05;;;;;;;16.27;14.67;;;4.90;99.90;;;;;;4989463;28;20205;-68
2024/02/06 00:51:31;;;;;;;15.30;12.50;;;5.00;99.90;;;;;;4977435;28;20640;-68
2024/02/06 00:53:56;;;;;;;16.30;14.23;;;5.00;99.90;;;;;;4977340;28;20680;-68
2024/02/06 00:56:22;;;;;;;16.53;14.17;;;5.00;99.90;;;;;;4976838;28;20726;-68
2024/02/06 00:58:47;;;;;;;15.47;13.77;;;5.10;99.90;;;;;;4981304;28;20196;-68
2024/02/06 01:01:13;;;;;;;15.10;13.40;;;5.30;99.90;;;;;;4996934;28;20169;-69
2024/02/06 01:03:38;;;;;;;15.37;13.63;;;5.50;99.90;;;;;;4995097;28;20170;-69
2024/02/06 01:06:04;;;;;;;17.03;14.13;;;5.50;99.90;;;;;;4996301;28;20168;-69
2024/02/06 01:08:30;;;;;;;16.70;13.77;;;5.70;99.90;;;;;;4994442;28;20200;-68
2024/02/06 01:10:55;;;;;;;17.03;13.37;;;5.80;99.90;;;;;;4976934;28;20193;-69
2024/02/06 01:13:21;;;;;;;16.27;11.90;;;6.00;99.90;;;;;;4979230;28;20559;-68
2024/02/06 01:15:46;;;;;;;12.90;11.60;;;6.20;99.90;;;;;;4975370;28;20261;-70
2024/02/06 01:18:12;;;;;;;14.03;11.80;;;6.40;99.90;;;;;;4976576;28;20181;-68
2024/02/06 01:20:37;;;;;;;14.13;12.60;;;6.60;99.90;;;;;;4995477;28;20182;-68
2024/02/06 01:23:03;;;;;;;13.20;11.80;;;6.70;99.90;;;;;;4996254;28;20167;-68
2024/02/06 01:25:30;;;;;;;13.67;12.30;;;6.80;99.90;;;;;;4996064;28;20181;-68
2024/02/06 01:27:55;;;;;;;15.73;11.93;;;6.90;99.90;;;;;;4995883;28;20609;-69
2024/02/06 01:30:21;;;;;;;12.90;11.57;;;6.90;99.90;;;;;;4979255;28;20405;-69
2024/02/06 01:32:46;;;;;;;13.27;11.87;;;6.90;99.90;;;;;;4975107;28;20552;-69
2024/02/06 01:35:12;;;;;;;13.90;11.20;;;7.00;99.90;;;;;;4976270;28;20651;-69
2024/02/06 01:37:38;;;;;;;18.03;11.50;;;7.00;99.90;;;;;;4976427;28;20229;-68
2024/02/06 01:40:04;;;;;;;14.50;12.50;;;7.00;99.90;;;;;;4990277;28;20204;-69
2024/02/06 01:42:29;;;;;;;13.33;11.00;;;7.10;99.90;;;;;;4995636;28;20166;-69
2024/02/06 01:44:55;;;;;;;15.77;12.90;;;7.10;99.90;;;;;;4995794;28;20404;-68
2024/02/06 01:47:21;;;;;;;13.00;11.33;;;7.10;99.90;;;;;;4995434;28;20174;-68
2024/02/06 01:49:46;;;;;;;11.83;10.50;;;7.20;99.90;;;;;;4982755;28;20186;-69
2024/02/06 01:52:13;;;;;;;16.47;11.20;;;7.10;99.90;;;;;;4992180;28;20656;-69
2024/02/06 01:54:38;;;;;;;13.43;12.20;;;7.10;99.90;;;;;;4995287;28;20493;-68
2024/02/06 01:57:04;;;;;;;15.17;11.10;;;7.00;99.90;;;;;;4993978;28;20493;-68
2024/02/06 01:59:30;;;;;;;16.47;12.67;;;7.00;99.90;;;;;;4995610;28;20192;-69
2024/02/06 02:01:56;;;;;;;16.27;13.27;;;6.90;99.90;;;;;;4977676;28;20896;-68
2024/02/06 02:04:22;;;;;;;13.23;11.57;;;6.90;99.90;;;;;;4995386;28;20327;-68
2024/02/06 02:06:48;;;;;;;12.40;11.20;;;7.00;99.90;;;;;;4995117;28;20501;-68
2024/02/06 02:09:13;;;;;;;15.93;11.70;;;7.00;99.90;;;;;;4995220;28;20205;-69
2024/02/06 02:11:39;;;;;;;15.27;11.73;;;7.00;99.90;;;;;;4995127;28;20410;-68
2024/02/06 02:14:05;;;;;;;13.33;11.93;;;7.00;99.90;;;;;;4995053;28;20254;-69
2024/02/06 02:16:31;;;;;;;10.67;9.57;;;6.90;99.90;;;;;;4979564;28;20202;-68
2024/02/06 02:18:58;;;;;;;14.80;12.33;;;6.90;99.90;;;;;;4978843;28;20433;-69
2024/02/06 02:21:26;;;;;;;12.97;10.60;;;6.90;99.90;;;;;;4994785;28;20213;-69
2024/02/06 02:23:52;;;;;;;13.77;10.80;;;7.00;99.90;;;;;;4994841;28;20815;-69
2024/02/06 02:26:18;;;;;;;13.07;11.77;;;6.90;99.90;;;;;;4994834;28;20460;-69
2024/02/06 02:28:44;;;;;;;12.43;10.97;;;7.00;99.90;;;;;;4992073;28;20198;-68
2024/02/06 02:31:10;;;;;;;15.30;10.63;;;7.00;99.90;;;;;;4975523;28;20498;-68
2024/02/06 02:33:36;;;;;;;12.30;10.33;;;7.10;99.90;;;;;;4974101;28;20795;-68
2024/02/06 02:36:06;;;;;;;13.53;9.70;;;7.00;99.90;;;;;;4975062;28;20564;-68
2024/02/06 02:38:38;;;;;;;12.90;10.33;;;7.00;99.90;;;;;;4976047;28;20434;-68
2024/02/06 02:41:04;;;;;;;13.43;10.80;;;7.00;99.90;;;;;;4994478;28;20891;-68
2024/02/06 02:43:29;;;;;;;15.73;9.90;;;7.00;99.90;;;;;;4994456;28;20414;-69
2024/02/06 02:45:55;;;;;;;12.87;11.53;;;7.10;99.90;;;;;;4994951;28;20538;-69
2024/02/06 02:48:21;;;;;;;14.07;11.50;;;6.90;99.90;;;;;;4994330;28;20219;-69
2024/02/06 02:50:46;;;;;;;12.77;11.27;;;6.90;99.90;;;;;;4975596;28;20184;-69
2024/02/06 02:53:12;;;;;;;14.47;11.20;;;6.90;99.90;;;;;;4975171;28;20638;-70
2024/02/06 02:55:37;;;;;;;13.40;10.70;;;6.90;99.90;;;;;;4974713;28;20184;-67
2024/02/06 02:58:04;;;;;;;13.10;11.40;;;6.80;99.90;;;;;;4974964;28;20187;-68
2024/02/06 03:00:30;;;;;;;11.30;10.10;;;6.80;99.90;;;;;;4991354;28;20510;-69
2024/02/06 03:02:56;;;;;;;14.07;11.30;;;6.70;99.90;;;;;;4994184;28;20412;-69
2024/02/06 03:05:21;;;;;;;12.80;11.50;;;6.60;99.90;;;;;;4991062;28;20634;-69
2024/02/06 03:07:47;;;;;;;14.67;11.87;;;6.50;99.90;;;;;;4994439;28;20198;-68
2024/02/06 03:10:12;;;;;;;13.30;11.40;;;6.40;99.90;;;;;;4980422;28;20254;-69
2024/02/06 03:12:38;;;;;;;11.33;9.83;;;6.40;99.90;;;;;;4974490;28;20544;-67
2024/02/06 03:15:04;;;;;;;15.27;12.63;;;6.30;99.90;;;;;;4974488;28;20596;-68
2024/02/06 03:17:29;;;;;;;15.83;12.60;;;6.20;99.90;;;;;;4974598;28;20208;-69
2024/02/06 03:19:55;;;;;;;20.17;11.93;;;6.10;99.90;;;;;;4985725;28;20497;-68
2024/02/06 03:22:21;;;;;;;14.90;12.40;;;6.10;99.90;;;;;;4992409;28;20170;-68
2024/02/06 03:24:47;;;;;;;12.30;11.00;;;5.80;99.90;;;;;;4993723;28;20170;-68
2024/02/06 03:27:13;;;;;;;13.40;10.63;;;5.80;99.90;;;;;;4993066;28;20517;-69
2024/02/06 03:29:40;;;;;;;15.77;11.67;;;5.80;99.90;;;;;;4984860;28;20421;-68
2024/02/06 03:32:06;;;;;;;14.67;11.90;;;5.70;99.90;;;;;;4973005;28;20200;-68
2024/02/06 03:34:31;;;;;;;14.43;11.20;;;5.70;99.90;;;;;;4974341;28;20449;-68
2024/02/06 03:36:57;;;;;;;11.57;10.30;;;5.60;99.90;;;;;;4974429;28;20256;-68
2024/02/06 03:39:22;;;;;;;11.60;9.67;;;5.60;99.90;;;;;;4979586;28;20185;-69
2024/02/06 03:41:48;;;;;;;13.43;10.27;;;5.60;99.90;;;;;;4993763;28;20313;-69
2024/02/06 03:44:16;;;;;;;12.93;10.00;;;5.60;99.90;;;;;;4993876;28;20196;-69
2024/02/06 03:46:42;;;;;;;13.47;11.20;;;5.50;99.90;;;;;;4993685;28;20186;-68
2024/02/06 03:49:08;;;;;;;17.40;10.50;;;5.50;99.90;;;;;;4988703;28;20456;-69
2024/02/06 03:51:34;;;;;;;16.37;11.47;;;5.50;99.90;;;;;;4974288;28;20756;-68
2024/02/06 03:53:59;;;;;;;10.97;9.60;;;5.50;99.90;;;;;;4974311;28;20162;-69
2024/02/06 03:56:25;;;;;;;13.60;10.50;;;5.40;99.90;;;;;;4979025;28;20473;-68
2024/02/06 03:58:51;;;;;;;13.67;10.30;;;5.40;99.90;;;;;;4993376;28;20184;-68
2024/02/06 04:01:16;;;;;;;14.57;11.33;;;5.40;99.90;;;;;;4993704;28;20175;-68
2024/02/06 04:03:42;;;;;;;12.03;10.70;;;5.40;99.90;;;;;;4993701;28;20636;-68
2024/02/06 04:06:15;;;;;;;16.63;10.10;;;5.30;99.90;;;;;;4991780;28;20675;-69
2024/02/06 04:08:43;;;;;;;11.73;10.17;;;5.40;99.90;;;;;;4996531;28;20432;-69
2024/02/06 04:11:12;;;;;;;14.10;10.30;;;5.30;99.90;;;;;;4978359;28;20496;-69
2024/02/06 04:13:38;;;;;;;13.70;9.80;;;5.20;99.90;;;;;;4978118;28;20478;-69
2024/02/06 04:16:04;;;;;;;14.37;12.30;;;5.20;99.90;;;;;;4978086;28;20457;-69
2024/02/06 04:18:31;;;;;;;11.80;9.20;;;5.20;99.90;;;;;;4977901;28;20432;-69
2024/02/06 04:20:56;;;;;;;11.53;9.07;;;5.20;99.90;;;;;;4996734;28;20412;-69
2024/02/06 04:23:22;;;;;;;15.37;9.70;;;5.20;99.90;;;;;;4997445;28;20415;-69
2024/02/06 04:25:47;;;;;;;12.83;11.00;;;5.20;99.90;;;;;;4997376;28;20162;-69
2024/02/06 04:28:13;;;;;;;14.40;11.47;;;5.20;99.90;;;;;;4996994;28;20574;-68
2024/02/06 04:30:38;;;;;;;17.23;10.10;;;5.20;99.90;;;;;;4980746;28;20170;-69
2024/02/06 04:33:04;;;;;;;11.17;10.00;;;5.10;99.90;;;;;;4977721;28;20173;-69
2024/02/06 04:35:30;;;;;;;13.30;11.90;;;5.10;99.90;;;;;;4977555;28;20169;-69
2024/02/06 04:37:56;;;;;;;18.60;12.27;;;4.90;99.90;;;;;;4977570;28;20225;-69
2024/02/06 04:40:22;;;;;;;15.70;12.83;;;4.90;99.90;;;;;;4991057;28;20227;-69
2024/02/06 04:42:47;;;;;;;19.87;12.67;;;4.80;99.90;;;;;;4997403;28;20165;-68
2024/02/06 04:45:13;;;;;;;12.10;9.47;;;4.80;99.90;;;;;;4996823;28;21031;-69
2024/02/06 04:47:38;;;;;;;18.03;12.30;;;4.80;99.90;;;;;;5020530;23;20208;-68
2024/02/06 04:50:05;;;;;;;12.40;10.40;;;4.70;99.90;;;;;;4996408;28;20193;-69
2024/02/06 04:52:31;;;;;;;14.40;11.17;;;4.70;99.90;;;;;;4997087;28;20169;-69
2024/02/06 04:54:58;;;;;;;18.83;12.03;;;4.70;99.90;;;;;;4997530;28;20945;-69
2024/02/06 04:57:24;;;;;;;16.03;11.70;;;4.70;99.90;;;;;;4996877;28;20602;-70
2024/02/06 04:59:50;;;;;;;12.97;10.27;;;4.70;99.90;;;;;;4995783;28;20428;-69
2024/02/06 05:02:15;;;;;;;15.10;10.50;;;4.80;99.90;;;;;;4996887;28;20416;-69
2024/02/06 05:04:41;;;;;;;12.63;10.77;;;4.80;99.90;;;;;;4995898;28;20219;-69
2024/02/06 05:07:07;;;;;;;18.17;11.63;;;4.70;99.90;;;;;;4995353;28;20181;-70
2024/02/06 05:09:32;;;;;;;15.90;11.37;;;4.70;99.90;;;;;;4986800;28;20193;-68
2024/02/06 05:12:01;;;;;;;15.73;11.23;;;4.70;99.90;;;;;;4977680;28;20175;-68
2024/02/06 05:14:28;;;;;;;16.67;12.60;;;4.80;99.90;;;;;;4977472;28;20169;-68
2024/02/06 05:16:53;;;;;;;13.70;11.13;;;4.70;99.90;;;;;;4976823;28;20440;-70
2024/02/06 05:19:20;;;;;;;13.83;10.83;;;4.60;99.90;;;;;;4980984;28;20805;-69
2024/02/06 05:21:46;;;;;;;17.93;11.97;;;4.60;99.90;;;;;;4996958;28;20188;-68
2024/02/06 05:24:11;;;;;;;17.10;12.37;;;4.60;99.90;;;;;;4995570;28;20408;-69
2024/02/06 05:26:37;;;;;;;16.07;11.70;;;4.70;99.90;;;;;;4995643;28;20182;-69
2024/02/06 05:29:05;;;;;;;17.00;11.17;;;4.80;99.90;;;;;;4993951;28;20182;-69
2024/02/06 05:31:30;;;;;;;13.80;9.80;;;4.90;99.90;;;;;;4975445;28;20177;-69
2024/02/06 05:33:58;;;;;;;12.63;8.83;;;4.90;99.90;;;;;;4976715;28;20560;-69
2024/02/06 05:36:24;;;;;;;11.70;9.10;;;4.90;99.90;;;;;;4975641;28;20245;-69
2024/02/06 05:38:49;;;;;;;12.40;9.23;;;5.10;99.90;;;;;;4977332;28;20467;-69
2024/02/06 05:41:15;;;;;;;10.90;8.50;;;5.20;99.90;;;;;;4996719;28;20172;-69
2024/02/06 05:43:42;;;;;;;8.73;7.83;;;5.40;99.90;;;;;;4996602;28;20183;-69
2024/02/06 05:46:08;;;;;;;9.77;6.67;;;5.60;99.90;;;;;;4996360;28;20172;-72
2024/02/06 05:48:34;;;;;;;9.83;6.40;;;5.70;99.90;;;;;;4996612;28;20533;-69
2024/02/06 05:51:01;;;;;;;9.60;6.10;;;5.80;99.90;;;;;;4978290;28;20448;-70
2024/02/06 05:53:26;;;;;;;11.03;7.40;;;5.90;99.90;;;;;;4977265;28;20829;-69
2024/02/06 05:55:52;;;;;;;11.07;6.53;;;5.90;99.90;;;;;;4976634;28;20442;-69
2024/02/06 05:58:17;;;;;;;8.03;7.17;;;6.00;99.90;;;;;;4976814;28;20188;-69
2024/02/06 06:00:43;;;;;;;11.23;7.03;;;6.10;99.90;;;;;;4991969;28;20179;-70
2024/02/06 06:03:09;;;;;;;8.70;6.60;;;6.20;99.90;;;;;;4996252;28;20663;-70
2024/02/06 06:05:34;;;;;;;9.63;7.30;;;6.20;99.90;;;;;;4996190;28;20175;-72
2024/02/06 06:08:00;;;;;;;7.57;6.47;;;6.20;99.90;;;;;;4995867;28;20709;-71
2024/02/06 06:10:25;;;;;;;8.63;7.30;;;6.10;99.90;;;;;;4981245;28;20177;-70
2024/02/06 06:12:51;;;;;;;9.90;7.50;;;6.10;99.90;;;;;;4976956;28;20174;-70
2024/02/06 06:15:17;;;;;;;10.80;7.20;;;6.10;99.90;;;;;;4977546;28;20296;-70
2024/02/06 06:17:42;;;;;;;8.47;6.77;;;6.20;99.90;;;;;;4976211;28;20198;-70
2024/02/06 06:20:10;;;;;;;7.53;6.83;;;6.20;99.90;;;;;;4986446;28;20173;-70
2024/02/06 06:22:35;;;;;;;10.97;7.60;;;6.30;99.90;;;;;;4995500;28;20224;-68
2024/02/06 06:25:01;;;;;;;9.30;7.23;;;6.40;99.90;;;;;;4995573;28;20406;-69
2024/02/06 06:27:27;;;;;;;13.17;7.90;;;6.30;99.90;;;;;;4995571;28;20210;-69
2024/02/06 06:29:52;;;;;;;9.70;7.77;;;6.40;99.90;;;;;;4986852;28;20223;-69
2024/02/06 06:32:18;;;;;;;7.53;6.50;;;6.50;99.90;;;;;;4975826;28;20182;-69
2024/02/06 06:34:44;;;;;;;10.13;8.43;;;6.60;99.90;;;;;;4976080;28;20672;-70
2024/02/06 06:37:09;;;;;;;11.90;7.50;;;6.70;99.90;;;;;;4975592;28;20195;-69
2024/02/06 06:39:35;;;;;;;12.20;7.90;;;6.70;99.90;;;;;;4981361;28;20192;-69
2024/02/06 06:42:01;;;;;;;9.70;6.67;;;6.50;99.90;;;;;;4995362;28;20173;-70
2024/02/06 06:44:26;;;;;;;7.63;6.83;;;6.40;99.90;;;;;;4995221;28;20399;-69
2024/02/06 06:46:52;;;;;;;6.90;6.03;;;6.50;99.90;;;;;;4993763;28;20226;-70
2024/02/06 06:49:18;;;;;;;9.57;6.47;;;6.50;99.90;;;;;;4991561;28;20224;-69
2024/02/06 06:51:43;;;;;;;6.23;5.53;;;6.50;99.90;;;;;;4975368;28;20247;-70
2024/02/06 06:54:09;;;;;;;8.37;6.57;;;6.50;99.90;;;;;;4975677;28;20179;-69
2024/02/06 06:56:34;;;;;;;7.57;6.33;;;6.60;99.90;;;;;;5005165;28;20581;-69
2024/02/06 06:59:00;;;;;;;9.60;7.33;;;6.50;99.90;;;;;;5013677;28;20191;-70
2024/02/06 07:01:26;;;;;;;9.80;7.20;;;6.40;99.90;;;;;;4994909;28;20223;-71
2024/02/06 07:03:51;;;;;;;6.73;6.03;;;6.50;99.90;;;;;;4995228;28;20177;-71
2024/02/06 07:06:17;;;;;;;8.50;6.87;;;6.40;99.90;;;;;;4995217;28;20168;-70
2024/02/06 07:08:43;;;;;;;8.80;6.83;;;6.40;99.90;;;;;;4995175;28;20199;-70
2024/02/06 07:11:09;;;;;;;8.83;6.30;;;6.40;99.90;;;;;;4976801;28;20648;-70
2024/02/06 07:13:35;;;;;;;7.47;6.10;;;6.40;99.90;;;;;;4975358;28;20414;-69
2024/02/06 07:16:01;;;;;;;9.53;6.40;;;6.30;99.90;;;;;;4977972;28;20211;-70
2024/02/06 07:18:26;;;;;;;10.40;6.20;;;6.40;99.90;;;;;;4975128;28;20192;-70
2024/02/06 07:20:52;;;;;;;9.00;7.00;;;6.40;99.90;;;;;;4993211;28;20249;-69
2024/02/06 07:23:18;;;;;;;7.10;6.33;;;6.40;99.90;;;;;;5003617;28;20177;-70
2024/02/06 07:25:44;;;;;;;9.27;6.40;;;6.50;99.90;;;;;;5011668;28;20176;-70
2024/02/06 07:28:10;;;;;;;7.40;6.70;;;6.60;99.90;;;;;;4994706;28;20690;-70
2024/02/06 07:30:36;;;;;;;9.73;7.07;;;6.50;99.90;;;;;;5001283;28;20567;-68
2024/02/06 07:33:01;;;;;;;6.63;5.90;;;6.40;99.90;;;;;;5014459;28;20581;-70
2024/02/06 07:35:27;;;;;;;9.30;6.10;;;6.50;99.90;;;;;;5014242;28;20169;-70
2024/02/06 07:37:53;;;;;;;9.13;6.67;;;6.60;99.90;;;;;;5014201;28;20197;-70
2024/02/06 07:40:18;;;;;;;7.17;5.80;;;6.50;99.90;;;;;;5003211;28;20165;-69
2024/02/06 07:42:45;;;;;;;9.33;5.50;;;6.60;99.90;;;;;;4994657;28;20167;-70
2024/02/06 07:45:11;;;;;;;6.87;4.73;;;6.80;99.90;;;;;;5013741;28;20536;-70
2024/02/06 07:47:39;;;;;;;8.20;5.90;;;6.90;99.90;;;;;;5013692;28;20763;-70
2024/02/06 07:50:05;;;;;;;7.97;5.60;;;6.90;99.90;;;;;;5004896;28;20914;-70
2024/02/06 07:52:31;;;;;;;7.73;6.90;;;7.00;99.90;;;;;;5005649;28;20536;-70
2024/02/06 07:54:56;;;;;;;6.47;5.73;;;7.10;99.90;;;;;;5014059;28;20434;-70
2024/02/06 07:57:22;;;;;;;5.97;5.37;;;7.00;99.90;;;;;;5013920;28;20601;-70
2024/02/06 07:59:47;;;;;;;8.60;6.57;;;7.20;99.90;;;;;;5007442;28;20273;-69
2024/02/06 08:02:13;;;;;;;5.30;4.80;;;7.20;99.90;;;;;;4994129;28;20537;-70
2024/02/06 08:04:41;;;;;;;6.53;5.43;;;7.40;99.90;;;;;;4993829;28;20222;-70
2024/02/06 08:07:07;;;;;;;7.63;4.73;;;7.60;99.90;;;;;;4994024;28;20199;-70
2024/02/06 08:09:32;;;;;;;9.80;5.80;;;7.60;99.90;;;;;;4990051;28;20870;-70
2024/02/06 08:11:58;;;;;;;6.87;4.83;;;7.50;99.90;;;;;;4974497;28;20180;-70
2024/02/06 08:14:23;;;;;;;8.90;5.00;;;7.70;99.90;;;;;;4974985;28;20181;-70
2024/02/06 08:16:49;;;;;;;6.57;4.70;;;7.50;99.90;;;;;;4974402;28;20662;-70
2024/02/06 08:19:14;;;;;;;6.73;4.93;;;7.80;99.90;;;;;;4977564;28;20200;-70
2024/02/06 08:21:40;;;;;;;5.63;5.00;;;8.00;99.90;;;;;;4994357;28;20542;-70
2024/02/06 08:24:06;;;;;;;7.10;4.87;;;8.00;99.90;;;;;;4994480;28;20522;-70
2024/02/06 08:26:31;;;;;;;6.03;4.73;;;8.10;99.90;;;;;;4994453;28;20698;-70
2024/02/06 08:28:57;;;;;;;5.37;4.20;;;8.20;99.90;;;;;;4994272;28;20207;-70
2024/02/06 08:31:23;;;;;;;8.53;4.90;;;8.10;99.90;;;;;;4975655;28;20205;-69
2024/02/06 08:33:50;;;;;;;8.40;5.07;;;8.10;99.90;;;;;;4973829;28;20182;-70
2024/02/06 08:36:17;;;;;;;8.27;4.90;;;7.90;99.90;;;;;;4972966;28;20231;-70
2024/02/06 08:38:42;;;;;;;8.33;5.80;;;7.70;99.90;;;;;;4984284;28;20441;-69
2024/02/06 08:41:08;;;;;;;7.07;4.60;;;7.90;99.90;;;;;;4996628;28;20419;-70
2024/02/06 08:43:34;;;;;;;7.10;4.70;;;7.90;99.90;;;;;;4992737;28;20173;-69
2024/02/06 08:46:00;;;;;;;9.03;4.87;;;8.10;99.90;;;;;;4993929;28;20412;-70
2024/02/06 08:48:28;;;;;;;6.43;4.87;;;8.30;99.90;;;;;;4993739;28;20452;-70
2024/02/06 08:50:57;;;;;;;7.47;5.07;;;8.40;99.90;;;;;;4979582;28;20272;-70
2024/02/06 08:53:23;;;;;;;4.57;4.17;;;8.30;99.90;;;;;;4976145;28;20409;-70
2024/02/06 08:55:49;;;;;;;11.83;6.53;;;8.40;99.90;;;;;;4976812;28;20790;-70
2024/02/06 08:58:15;;;;;;;6.47;5.40;;;8.40;99.90;;;;;;4977783;28;20192;-69
2024/02/06 09:00:41;;;;;;;7.53;4.80;;;8.20;99.90;;;;;;4990418;28;20414;-70
2024/02/06 09:03:06;;;;;;;5.17;4.67;;;8.10;99.90;;;;;;4997125;28;20181;-70
2024/02/06 09:05:33;;;;;;;5.70;4.43;;;8.10;99.90;;;;;;4997194;28;20412;-70
2024/02/06 09:07:59;;;;;;;7.03;5.07;;;8.00;99.90;;;;;;4996785;28;20441;-69
2024/02/06 09:10:25;;;;;;;6.03;4.43;;;8.00;99.90;;;;;;4988015;28;20870;-70
2024/02/06 09:12:51;;;;;;;8.30;4.60;;;8.00;99.90;;;;;;4986358;28;20984;-69
2024/02/06 09:15:17;;;;;;;6.07;4.50;;;8.10;99.90;;;;;;4987322;28;20425;-71
2024/02/06 09:17:43;;;;;;;5.73;4.77;;;8.20;99.90;;;;;;4988804;28;20294;-70
2024/02/06 09:20:09;;;;;;;11.20;4.87;;;8.30;99.90;;;;;;4988668;28;20445;-70
2024/02/06 09:22:37;;;;;;;6.77;4.30;;;8.40;99.90;;;;;;4987778;28;20249;-70
2024/02/06 09:25:05;;;;;;;5.47;4.40;;;8.60;99.90;;;;;;4988301;28;20416;-70
2024/02/06 09:27:31;;;;;;;5.07;4.13;;;8.60;99.90;;;;;;4988042;28;20543;-72
2024/02/06 09:29:58;;;;;;;6.10;3.97;;;9.00;99.90;;;;;;4987937;28;20826;-70
2024/02/06 09:32:24;;;;;;;4.90;4.17;;;9.00;99.90;;;;;;4988112;28;20433;-71
2024/02/06 09:34:49;;;;;;;5.53;4.30;;;8.90;99.90;;;;;;4987767;28;21272;-71
2024/02/06 09:37:15;;;;;;;5.33;3.50;;;8.90;99.90;;;;;;4987759;28;20247;-70
2024/02/06 09:39:42;;;;;;;6.03;3.60;;;8.80;99.90;;;;;;4987430;28;20205;-72
2024/02/06 09:42:08;;;;;;;9.57;4.33;;;9.00;99.90;;;;;;4987744;28;20285;-72
2024/02/06 09:44:34;;;;;;;9.20;3.87;;;9.10;99.90;;;;;;4988543;28;20781;-68
2024/02/06 09:47:00;;;;;;;5.30;3.60;;;9.20;99.90;;;;;;4988110;28;20413;-69
2024/02/06 09:49:27;;;;;;;6.50;3.50;;;9.20;99.90;;;;;;4969611;28;20473;-70
2024/02/06 09:51:52;;;;;;;4.57;3.13;;;9.30;99.90;;;;;;4986870;28;20430;-70
2024/02/06 09:54:22;;;;;;;6.60;4.00;;;9.40;99.90;;;;;;4987578;28;20412;-71
2024/02/06 09:56:48;;;;;;;6.27;3.50;;;9.50;99.90;;;;;;4985989;28;20514;-72
2024/02/06 09:59:15;;;;;;;5.10;3.33;;;9.50;99.90;;;;;;4987203;28;20958;-71
2024/02/06 10:01:42;;;;;;;7.73;3.60;;;9.50;99.90;;;;;;4987059;28;20419;-70
2024/02/06 10:04:13;;;;;;;4.73;3.80;;;9.50;99.90;;;;;;4986149;28;20411;-70
2024/02/06 10:06:39;;;;;;;4.37;3.50;;;9.60;99.90;;;;;;4986911;28;20916;-70
2024/02/06 10:09:06;;;;;;;3.90;3.20;;;9.60;99.90;;;;;;4984321;28;20464;-70
2024/02/06 10:11:33;;;;;;;5.20;3.00;;;9.60;99.90;;;;;;4985693;28;21066;-70
2024/02/06 10:14:00;;;;;;;5.40;3.50;;;9.90;99.90;;;;;;4986688;28;20843;-70
2024/02/06 10:16:26;;;;;;;4.93;3.60;;;9.90;99.90;;;;;;4986362;28;20461;-70
2024/02/06 10:18:56;;;;;;;3.23;2.50;;;10.00;99.90;;;;;;4986116;28;20445;-70
2024/02/06 10:21:23;;;;;;;3.40;3.00;;;10.10;99.90;;;;;;4986415;28;20207;-72
2024/02/06 10:23:49;;;;;;;3.33;2.00;;;10.20;99.90;;;;;;4986793;28;20429;-70
2024/02/06 10:26:18;;;;;;;6.03;2.80;;;10.30;99.90;;;;;;4984954;28;21015;-69
2024/02/06 10:28:45;;;;;;;2.87;2.40;;;10.30;99.90;;;;;;4986236;28;20244;-71
2024/02/06 10:31:12;;;;;;;3.77;2.70;;;10.30;99.90;;;;;;4986621;28;21248;-70
2024/02/06 10:33:40;;;;;;;4.40;2.10;;;10.20;99.90;;;;;;4986168;28;20501;-72
2024/02/06 10:36:06;;;;;;;4.07;2.27;;;10.30;99.90;;;;;;4986781;28;20945;-73
2024/02/06 10:38:32;;;;;;;3.80;1.90;;;10.40;99.90;;;;;;4985820;28;20638;-68
2024/02/06 10:40:58;;;;;;;5.20;2.10;;;10.60;99.90;;;;;;4986452;28;20421;-70
2024/02/06 10:43:30;;;;;;;5.33;2.03;;;10.50;99.90;;;;;;4985753;28;20411;-69
2024/02/06 10:46:00;;;;;;;3.70;2.10;;;10.50;99.90;;;;;;4985649;28;20436;-70
2024/02/06 10:48:26;;;;;;;3.70;1.80;;;10.70;99.90;;;;;;4985301;28;21416;-70
2024/02/06 10:50:57;;;;;;;2.40;1.50;;;10.80;99.90;;;;;;4985584;28;20419;-69
2024/02/06 10:53:22;;;;;;;3.03;1.37;;;10.90;99.90;;;;;;4985915;28;20997;-69
2024/02/06 10:55:49;;;;;;;3.73;1.67;;;10.90;99.90;;;;;;4984950;28;20520;-70
2024/02/06 10:58:19;;;;;;;6.50;1.60;;;11.10;99.90;;;;;;4985453;28;20229;-70
2024/02/06 11:00:46;;;;;;;2.03;1.63;;;11.10;99.90;;;;;;4999751;23;20429;-70
2024/02/06 11:03:14;;;;;;;4.60;1.57;;;11.10;99.90;;;;;;4974315;28;20421;-70
2024/02/06 11:05:54;;;;;;;2.07;1.60;;;11.20;99.90;;;;;;4974525;28;20950;-69
2024/02/06 11:08:21;;;;;;;4.50;2.20;;;11.10;99.90;;;;;;4974106;28;20442;-70
2024/02/06 11:10:58;;;;;;;1.77;1.57;;;11.10;99.90;;;;;;4974636;28;20419;-68
2024/02/06 11:13:40;;;;;;;2.63;1.40;;;11.30;99.90;;;;;;4974590;28;20377;-69
2024/02/06 11:16:08;;;;;;;2.80;1.77;;;11.50;99.90;;;;;;4974357;28;20382;-68
2024/02/06 11:18:44;;;;;;;2.60;1.60;;;11.60;99.90;;;;;;4974290;28;20401;-69
2024/02/06 11:21:10;;;;;;;5.70;2.00;;;11.60;99.90;;;;;;4974395;28;20424;-69
2024/02/06 11:23:37;;;;;;;6.00;2.10;;;11.60;99.90;;;;;;4974225;28;20913;-68
2024/02/06 11:26:03;;;;;;;2.77;1.73;;;11.50;99.90;;;;;;4984088;28;20927;-69
2024/02/06 11:28:29;;;;;;;3.23;1.90;;;11.60;99.90;;;;;;4981694;28;20501;-70
2024/02/06 11:30:59;;;;;;;2.10;1.80;;;11.70;99.90;;;;;;4983240;28;20438;-70
2024/02/06 11:33:31;;;;;;;4.27;1.80;;;11.60;99.90;;;;;;4982432;28;20168;-69
2024/02/06 11:36:13;;;;;;;6.43;1.90;;;11.70;99.90;;;;;;4974775;28;20408;-70
2024/02/06 11:38:39;;;;;;;2.37;1.70;;;11.70;99.90;;;;;;4974165;28;20919;-69
2024/02/06 11:41:10;;;;;;;3.10;1.70;;;11.80;99.90;;;;;;4974432;28;20508;-69
2024/02/06 11:43:37;;;;;;;2.93;1.70;;;11.80;99.90;;;;;;4974568;28;20178;-69
2024/02/06 11:46:03;;;;;;;3.00;2.17;;;11.80;99.90;;;;;;4974155;28;20415;-70
2024/02/06 11:48:29;;;;;;;3.20;1.73;;;11.80;99.90;;;;;;4973821;28;20947;-70
2024/02/06 11:50:54;;;;;;;5.03;2.23;;;11.70;99.90;;;;;;4974448;28;20452;-68
2024/02/06 11:53:25;;;;;;;4.17;2.10;;;11.70;99.90;;;;;;4972669;28;20173;-69
2024/02/06 11:55:51;;;;;;;3.53;1.40;;;11.70;99.90;;;;;;4973770;28;20161;-69
2024/02/06 11:58:17;;;;;;;3.90;1.90;;;11.50;99.90;;;;;;4972844;28;20415;-70
2024/02/06 12:00:43;;;;;;;5.53;2.07;;;11.60;99.90;;;;;;4954233;28;20173;-70
2024/02/06 12:03:08;;;;;;;3.20;1.83;;;11.90;99.90;;;;;;4960149;28;20830;-69
2024/02/06 12:05:51;;;;;;;4.10;1.63;;;12.20;99.90;;;;;;4973691;28;20180;-69
2024/02/06 12:08:20;;;;;;;4.53;1.97;;;12.50;99.90;;;;;;4972454;28;20162;-70
2024/02/06 12:10:47;;;;;;;3.00;2.00;;;12.30;99.90;;;;;;4955683;28;20434;-68
2024/02/06 12:13:13;;;;;;;3.03;1.70;;;12.40;99.90;;;;;;4954672;28;20961;-69
2024/02/06 12:15:40;;;;;;;5.37;2.37;;;12.30;99.90;;;;;;4954652;28;20429;-69
2024/02/06 12:18:12;;;;;;;4.80;2.10;;;12.20;99.90;;;;;;4954338;28;20450;-69
2024/02/06 12:20:40;;;;;;;6.27;2.17;;;12.10;99.90;;;;;;4954568;28;20420;-69
2024/02/06 12:23:07;;;;;;;3.77;2.00;;;12.20;99.90;;;;;;4984917;28;20507;-69
2024/02/06 12:25:34;;;;;;;5.67;2.20;;;12.20;99.90;;;;;;4993280;28;20397;-69
2024/02/06 12:28:01;;;;;;;4.67;2.07;;;12.20;99.90;;;;;;4994549;28;20817;-69
2024/02/06 12:30:31;;;;;;;8.03;1.90;;;12.20;99.90;;;;;;4978826;28;20413;-70
2024/02/06 12:33:01;;;;;;;7.10;1.97;;;12.00;99.90;;;;;;4976944;28;20443;-69
2024/02/06 12:35:27;;;;;;;3.77;1.97;;;12.00;99.90;;;;;;4977105;28;20408;-69
2024/02/06 12:38:00;;;;;;;3.70;2.10;;;12.00;99.90;;;;;;4977273;28;20835;-69
2024/02/06 12:40:29;;;;;;;3.03;2.03;;;11.90;99.90;;;;;;4959263;28;20444;-69